sensor_id;sensor_type;location;lat;lon;timestamp;P1;durP1;ratioP1;P2;durP2;ratioP2
56405;SDS011;42305;51.444;-2.584;2022-09-01T00:02:22;2.70;;;2.70;;
56405;SDS011;42305;51.444;-2.584;2022-09-01T00:04:52;2.75;;;2.75;;
56405;SDS011;42305;51.444;-2.584;2022-09-01T00:07:23;2.80;;;2.80;;
56405;SDS011;42305;51.444;-2.584;2022-09-01T00:09:49;2.60;;;2.60;;
56405;SDS011;42305;51.444;-2.584;2022-09-01T00:12:16;2.70;;;2.70;;
56405;SDS011;42305;51.444;-2.584;2022-09-01T00:14:45;2.28;;;2.28;;
56405;SDS011;42305;51.444;-2.584;2022-09-01T00:17:11;2.85;;;2.85;;
56405;SDS011;42305;51.444;-2.584;2022-09-01T00:19:37;2.72;;;2.72;;
56405;SDS011;42305;51.444;-2.584;2022-09-01T00:22:04;2.80;;;2.72;;
56405;SDS011;42305;51.444;-2.584;2022-09-01T00:24:30;2.80;;;2.80;;
56405;SDS011;42305;51.444;-2.584;2022-09-01T00:26:56;2.80;;;2.80;;
56405;SDS011;42305;51.444;-2.584;2022-09-01T00:29:23;2.33;;;2.33;;
56405;SDS011;42305;51.444;-2.584;2022-09-01T00:31:49;3.55;;;3.35;;
56405;SDS011;42305;51.444;-2.584;2022-09-01T00:34:15;2.55;;;2.55;;
56405;SDS011;42305;51.444;-2.584;2022-09-01T00:36:42;2.78;;;2.78;;
56405;SDS011;42305;51.444;-2.584;2022-09-01T00:39:08;2.55;;;2.55;;
56405;SDS011;42305;51.444;-2.584;2022-09-01T00:41:34;2.60;;;2.60;;
56405;SDS011;42305;51.444;-2.584;2022-09-01T00:44:07;2.58;;;2.58;;
56405;SDS011;42305;51.444;-2.584;2022-09-01T00:46:37;3.25;;;3.17;;
56405;SDS011;42305;51.444;-2.584;2022-09-01T00:51:32;2.58;;;2.58;;
56405;SDS011;42305;51.444;-2.584;2022-09-01T00:53:59;3.10;;;3.10;;
56405;SDS011;42305;51.444;-2.584;2022-09-01T00:56:26;2.72;;;2.72;;
56405;SDS011;42305;51.444;-2.584;2022-09-01T00:58:52;3.00;;;3.00;;
56405;SDS011;42305;51.444;-2.584;2022-09-01T01:01:18;3.35;;;3.28;;
56405;SDS011;42305;51.444;-2.584;2022-09-01T01:03:44;2.85;;;2.85;;
56405;SDS011;42305;51.444;-2.584;2022-09-01T01:06:11;2.88;;;2.88;;
56405;SDS011;42305;51.444;-2.584;2022-09-01T01:08:40;2.90;;;2.90;;
56405;SDS011;42305;51.444;-2.584;2022-09-01T01:11:09;2.55;;;2.55;;
56405;SDS011;42305;51.444;-2.584;2022-09-01T01:14:15;2.92;;;2.92;;
56405;SDS011;42305;51.444;-2.584;2022-09-01T01:16:37;2.78;;;2.78;;
56405;SDS011;42305;51.444;-2.584;2022-09-01T01:19:05;2.60;;;2.60;;
56405;SDS011;42305;51.444;-2.584;2022-09-01T01:21:51;2.85;;;2.85;;
56405;SDS011;42305;51.444;-2.584;2022-09-01T01:24:36;3.20;;;3.10;;
56405;SDS011;42305;51.444;-2.584;2022-09-01T01:27:03;2.85;;;2.80;;
56405;SDS011;42305;51.444;-2.584;2022-09-01T01:29:33;3.30;;;3.30;;
56405;SDS011;42305;51.444;-2.584;2022-09-01T01:32:04;3.50;;;3.40;;
56405;SDS011;42305;51.444;-2.584;2022-09-01T01:34:36;3.10;;;3.10;;
56405;SDS011;42305;51.444;-2.584;2022-09-01T01:37:04;3.20;;;3.20;;
56405;SDS011;42305;51.444;-2.584;2022-09-01T01:39:30;3.00;;;3.00;;
56405;SDS011;42305;51.444;-2.584;2022-09-01T01:41:56;3.60;;;3.40;;
56405;SDS011;42305;51.444;-2.584;2022-09-01T01:44:23;3.10;;;3.00;;
56405;SDS011;42305;51.444;-2.584;2022-09-01T01:46:52;3.30;;;3.20;;
56405;SDS011;42305;51.444;-2.584;2022-09-01T01:49:19;3.00;;;3.00;;
56405;SDS011;42305;51.444;-2.584;2022-09-01T01:51:46;3.30;;;3.20;;
56405;SDS011;42305;51.444;-2.584;2022-09-01T01:54:13;3.33;;;3.28;;
56405;SDS011;42305;51.444;-2.584;2022-09-01T01:56:39;3.20;;;3.20;;
56405;SDS011;42305;51.444;-2.584;2022-09-01T01:59:06;2.90;;;2.90;;
56405;SDS011;42305;51.444;-2.584;2022-09-01T02:01:39;2.90;;;2.90;;
56405;SDS011;42305;51.444;-2.584;2022-09-01T02:04:07;6.15;;;3.83;;
56405;SDS011;42305;51.444;-2.584;2022-09-01T02:06:34;3.70;;;3.50;;
56405;SDS011;42305;51.444;-2.584;2022-09-01T02:09:00;2.97;;;2.97;;
56405;SDS011;42305;51.444;-2.584;2022-09-01T02:11:28;4.20;;;4.03;;
56405;SDS011;42305;51.444;-2.584;2022-09-01T02:13:57;3.20;;;3.20;;
56405;SDS011;42305;51.444;-2.584;2022-09-01T02:16:26;3.85;;;3.70;;
56405;SDS011;42305;51.444;-2.584;2022-09-01T02:18:52;3.40;;;3.30;;
56405;SDS011;42305;51.444;-2.584;2022-09-01T02:21:20;3.08;;;3.08;;
56405;SDS011;42305;51.444;-2.584;2022-09-01T02:23:51;2.97;;;2.97;;
56405;SDS011;42305;51.444;-2.584;2022-09-01T02:26:23;3.13;;;3.13;;
56405;SDS011;42305;51.444;-2.584;2022-09-01T02:28:54;3.00;;;3.00;;
56405;SDS011;42305;51.444;-2.584;2022-09-01T02:31:20;2.65;;;2.65;;
56405;SDS011;42305;51.444;-2.584;2022-09-01T02:33:47;2.78;;;2.78;;
56405;SDS011;42305;51.444;-2.584;2022-09-01T02:36:14;2.70;;;2.70;;
56405;SDS011;42305;51.444;-2.584;2022-09-01T02:38:42;3.50;;;3.40;;
56405;SDS011;42305;51.444;-2.584;2022-09-01T02:41:10;3.35;;;3.30;;
56405;SDS011;42305;51.444;-2.584;2022-09-01T02:43:38;3.45;;;3.35;;
56405;SDS011;42305;51.444;-2.584;2022-09-01T02:46:04;3.40;;;3.33;;
56405;SDS011;42305;51.444;-2.584;2022-09-01T02:48:31;3.25;;;3.15;;
56405;SDS011;42305;51.444;-2.584;2022-09-01T02:51:00;3.40;;;3.30;;
56405;SDS011;42305;51.444;-2.584;2022-09-01T02:53:29;3.05;;;3.05;;
56405;SDS011;42305;51.444;-2.584;2022-09-01T02:55:56;2.92;;;2.92;;
56405;SDS011;42305;51.444;-2.584;2022-09-01T02:58:24;2.58;;;2.58;;
56405;SDS011;42305;51.444;-2.584;2022-09-01T03:00:51;3.08;;;3.08;;
56405;SDS011;42305;51.444;-2.584;2022-09-01T03:03:18;3.50;;;3.40;;
56405;SDS011;42305;51.444;-2.584;2022-09-01T03:05:45;2.80;;;2.80;;
56405;SDS011;42305;51.444;-2.584;2022-09-01T03:08:12;3.00;;;3.00;;
56405;SDS011;42305;51.444;-2.584;2022-09-01T03:10:42;2.83;;;2.83;;
56405;SDS011;42305;51.444;-2.584;2022-09-01T03:13:14;2.58;;;2.58;;
56405;SDS011;42305;51.444;-2.584;2022-09-01T03:15:42;2.67;;;2.67;;
56405;SDS011;42305;51.444;-2.584;2022-09-01T03:18:09;3.08;;;3.08;;
56405;SDS011;42305;51.444;-2.584;2022-09-01T03:20:36;2.78;;;2.78;;
56405;SDS011;42305;51.444;-2.584;2022-09-01T03:23:04;5.95;;;5.72;;
56405;SDS011;42305;51.444;-2.584;2022-09-01T03:25:33;3.00;;;3.00;;
56405;SDS011;42305;51.444;-2.584;2022-09-01T03:27:59;2.95;;;2.95;;
56405;SDS011;42305;51.444;-2.584;2022-09-01T03:30:31;2.72;;;2.72;;
56405;SDS011;42305;51.444;-2.584;2022-09-01T03:32:58;2.85;;;2.85;;
56405;SDS011;42305;51.444;-2.584;2022-09-01T03:35:24;2.85;;;2.85;;
56405;SDS011;42305;51.444;-2.584;2022-09-01T03:37:52;3.15;;;3.15;;
56405;SDS011;42305;51.444;-2.584;2022-09-01T03:40:19;3.05;;;2.95;;
56405;SDS011;42305;51.444;-2.584;2022-09-01T03:42:46;3.85;;;3.75;;
56405;SDS011;42305;51.444;-2.584;2022-09-01T03:45:12;3.50;;;3.40;;
56405;SDS011;42305;51.444;-2.584;2022-09-01T03:47:40;3.08;;;3.05;;
56405;SDS011;42305;51.444;-2.584;2022-09-01T03:50:07;3.25;;;2.90;;
56405;SDS011;42305;51.444;-2.584;2022-09-01T03:52:46;3.00;;;3.00;;
56405;SDS011;42305;51.444;-2.584;2022-09-01T03:55:13;2.88;;;2.88;;
56405;SDS011;42305;51.444;-2.584;2022-09-01T03:57:42;3.13;;;3.13;;
56405;SDS011;42305;51.444;-2.584;2022-09-01T04:00:11;2.33;;;2.33;;
56405;SDS011;42305;51.444;-2.584;2022-09-01T04:02:44;2.90;;;2.90;;
56405;SDS011;42305;51.444;-2.584;2022-09-01T04:05:12;2.97;;;2.97;;
56405;SDS011;42305;51.444;-2.584;2022-09-01T04:07:39;3.05;;;3.05;;
56405;SDS011;42305;51.444;-2.584;2022-09-01T04:10:06;5.28;;;4.10;;
56405;SDS011;42305;51.444;-2.584;2022-09-01T04:12:35;3.72;;;3.63;;
56405;SDS011;42305;51.444;-2.584;2022-09-01T04:15:02;2.75;;;2.75;;
56405;SDS011;42305;51.444;-2.584;2022-09-01T04:17:28;3.40;;;3.30;;
56405;SDS011;42305;51.444;-2.584;2022-09-01T04:20:12;3.10;;;3.10;;
56405;SDS011;42305;51.444;-2.584;2022-09-01T04:22:39;4.18;;;3.72;;
56405;SDS011;42305;51.444;-2.584;2022-09-01T04:25:06;4.97;;;4.72;;
56405;SDS011;42305;51.444;-2.584;2022-09-01T04:27:32;2.72;;;2.72;;
56405;SDS011;42305;51.444;-2.584;2022-09-01T04:30:05;3.45;;;3.35;;
56405;SDS011;42305;51.444;-2.584;2022-09-01T04:32:35;3.25;;;3.10;;
56405;SDS011;42305;51.444;-2.584;2022-09-01T04:35:02;3.03;;;3.03;;
56405;SDS011;42305;51.444;-2.584;2022-09-01T04:37:28;5.80;;;4.00;;
56405;SDS011;42305;51.444;-2.584;2022-09-01T04:39:55;3.15;;;2.80;;
56405;SDS011;42305;51.444;-2.584;2022-09-01T04:42:22;3.60;;;3.50;;
56405;SDS011;42305;51.444;-2.584;2022-09-01T04:44:49;3.17;;;3.08;;
56405;SDS011;42305;51.444;-2.584;2022-09-01T04:47:15;3.30;;;3.30;;
56405;SDS011;42305;51.444;-2.584;2022-09-01T04:49:44;3.42;;;3.33;;
56405;SDS011;42305;51.444;-2.584;2022-09-01T04:52:11;3.38;;;3.28;;
56405;SDS011;42305;51.444;-2.584;2022-09-01T04:54:38;3.50;;;3.40;;
56405;SDS011;42305;51.444;-2.584;2022-09-01T04:57:04;3.00;;;3.00;;
56405;SDS011;42305;51.444;-2.584;2022-09-01T04:59:31;2.80;;;2.80;;
56405;SDS011;42305;51.444;-2.584;2022-09-01T05:01:58;2.85;;;2.85;;
56405;SDS011;42305;51.444;-2.584;2022-09-01T05:04:25;3.08;;;3.08;;
56405;SDS011;42305;51.444;-2.584;2022-09-01T05:06:53;2.90;;;2.90;;
56405;SDS011;42305;51.444;-2.584;2022-09-01T05:09:25;2.92;;;2.92;;
56405;SDS011;42305;51.444;-2.584;2022-09-01T05:11:51;2.75;;;2.75;;
56405;SDS011;42305;51.444;-2.584;2022-09-01T05:14:17;3.92;;;3.80;;
56405;SDS011;42305;51.444;-2.584;2022-09-01T05:16:44;2.90;;;2.90;;
56405;SDS011;42305;51.444;-2.584;2022-09-01T05:19:10;3.50;;;3.33;;
56405;SDS011;42305;51.444;-2.584;2022-09-01T05:21:38;2.70;;;2.70;;
56405;SDS011;42305;51.444;-2.584;2022-09-01T05:24:04;5.25;;;3.75;;
56405;SDS011;42305;51.444;-2.584;2022-09-01T05:26:33;2.97;;;2.97;;
56405;SDS011;42305;51.444;-2.584;2022-09-01T05:29:04;2.28;;;2.28;;
56405;SDS011;42305;51.444;-2.584;2022-09-01T05:31:34;4.22;;;4.03;;
56405;SDS011;42305;51.444;-2.584;2022-09-01T05:34:02;2.70;;;2.70;;
56405;SDS011;42305;51.444;-2.584;2022-09-01T05:36:28;2.97;;;2.97;;
56405;SDS011;42305;51.444;-2.584;2022-09-01T05:38:58;2.95;;;2.95;;
56405;SDS011;42305;51.444;-2.584;2022-09-01T05:41:25;2.88;;;2.88;;
56405;SDS011;42305;51.444;-2.584;2022-09-01T05:43:52;2.55;;;2.55;;
56405;SDS011;42305;51.444;-2.584;2022-09-01T05:46:20;3.80;;;3.70;;
56405;SDS011;42305;51.444;-2.584;2022-09-01T05:48:48;3.00;;;3.00;;
56405;SDS011;42305;51.444;-2.584;2022-09-01T05:51:15;3.45;;;3.35;;
56405;SDS011;42305;51.444;-2.584;2022-09-01T05:53:44;2.85;;;2.85;;
56405;SDS011;42305;51.444;-2.584;2022-09-01T05:56:11;2.97;;;2.97;;
56405;SDS011;42305;51.444;-2.584;2022-09-01T05:58:39;2.83;;;2.83;;
56405;SDS011;42305;51.444;-2.584;2022-09-01T06:01:08;3.03;;;3.03;;
56405;SDS011;42305;51.444;-2.584;2022-09-01T06:03:37;3.88;;;3.72;;
56405;SDS011;42305;51.444;-2.584;2022-09-01T06:06:05;2.80;;;2.80;;
56405;SDS011;42305;51.444;-2.584;2022-09-01T06:08:33;2.67;;;2.67;;
56405;SDS011;42305;51.444;-2.584;2022-09-01T06:11:03;3.17;;;3.17;;
56405;SDS011;42305;51.444;-2.584;2022-09-01T06:13:36;2.63;;;2.63;;
56405;SDS011;42305;51.444;-2.584;2022-09-01T06:16:04;3.10;;;3.10;;
56405;SDS011;42305;51.444;-2.584;2022-09-01T06:18:31;2.92;;;2.92;;
56405;SDS011;42305;51.444;-2.584;2022-09-01T06:20:58;2.80;;;2.80;;
56405;SDS011;42305;51.444;-2.584;2022-09-01T06:23:24;3.90;;;3.80;;
56405;SDS011;42305;51.444;-2.584;2022-09-01T06:25:50;2.72;;;2.72;;
56405;SDS011;42305;51.444;-2.584;2022-09-01T06:28:16;3.00;;;3.00;;
56405;SDS011;42305;51.444;-2.584;2022-09-01T06:30:45;2.88;;;2.88;;
56405;SDS011;42305;51.444;-2.584;2022-09-01T06:33:13;4.28;;;4.18;;
56405;SDS011;42305;51.444;-2.584;2022-09-01T06:35:40;2.63;;;2.53;;
56405;SDS011;42305;51.444;-2.584;2022-09-01T06:38:08;2.97;;;2.97;;
56405;SDS011;42305;51.444;-2.584;2022-09-01T06:40:35;2.72;;;2.72;;
56405;SDS011;42305;51.444;-2.584;2022-09-01T06:43:03;2.70;;;2.70;;
56405;SDS011;42305;51.444;-2.584;2022-09-01T06:45:33;2.70;;;2.70;;
56405;SDS011;42305;51.444;-2.584;2022-09-01T06:47:59;2.92;;;2.92;;
56405;SDS011;42305;51.444;-2.584;2022-09-01T06:50:25;5.13;;;3.40;;
56405;SDS011;42305;51.444;-2.584;2022-09-01T06:52:52;3.10;;;2.90;;
56405;SDS011;42305;51.444;-2.584;2022-09-01T06:55:25;3.30;;;3.20;;
56405;SDS011;42305;51.444;-2.584;2022-09-01T06:57:57;4.20;;;4.00;;
56405;SDS011;42305;51.444;-2.584;2022-09-01T07:00:23;3.17;;;3.08;;
56405;SDS011;42305;51.444;-2.584;2022-09-01T07:02:54;2.72;;;2.72;;
56405;SDS011;42305;51.444;-2.584;2022-09-01T07:05:21;3.40;;;3.30;;
56405;SDS011;42305;51.444;-2.584;2022-09-01T07:07:48;2.75;;;2.75;;
56405;SDS011;42305;51.444;-2.584;2022-09-01T07:10:15;2.92;;;2.83;;
56405;SDS011;42305;51.444;-2.584;2022-09-01T07:12:46;3.00;;;2.90;;
56405;SDS011;42305;51.444;-2.584;2022-09-01T07:15:12;3.53;;;3.42;;
56405;SDS011;42305;51.444;-2.584;2022-09-01T07:17:45;2.78;;;2.78;;
56405;SDS011;42305;51.444;-2.584;2022-09-01T07:20:13;2.40;;;2.40;;
56405;SDS011;42305;51.444;-2.584;2022-09-01T07:22:40;2.85;;;2.83;;
56405;SDS011;42305;51.444;-2.584;2022-09-01T07:25:06;2.60;;;2.60;;
56405;SDS011;42305;51.444;-2.584;2022-09-01T07:27:36;3.40;;;3.28;;
56405;SDS011;42305;51.444;-2.584;2022-09-01T07:30:03;2.97;;;2.97;;
56405;SDS011;42305;51.444;-2.584;2022-09-01T07:32:33;2.50;;;2.50;;
56405;SDS011;42305;51.444;-2.584;2022-09-01T07:35:00;3.65;;;3.25;;
56405;SDS011;42305;51.444;-2.584;2022-09-01T07:37:26;2.97;;;2.95;;
56405;SDS011;42305;51.444;-2.584;2022-09-01T07:39:52;2.45;;;2.45;;
56405;SDS011;42305;51.444;-2.584;2022-09-01T07:42:20;3.10;;;3.00;;
56405;SDS011;42305;51.444;-2.584;2022-09-01T07:44:46;2.85;;;2.83;;
56405;SDS011;42305;51.444;-2.584;2022-09-01T07:47:13;3.13;;;3.05;;
56405;SDS011;42305;51.444;-2.584;2022-09-01T07:49:40;2.97;;;2.97;;
56405;SDS011;42305;51.444;-2.584;2022-09-01T07:52:07;2.80;;;2.80;;
56405;SDS011;42305;51.444;-2.584;2022-09-01T07:54:33;2.13;;;2.13;;
56405;SDS011;42305;51.444;-2.584;2022-09-01T07:57:01;2.90;;;2.80;;
56405;SDS011;42305;51.444;-2.584;2022-09-01T07:59:27;2.38;;;2.38;;
56405;SDS011;42305;51.444;-2.584;2022-09-01T08:01:55;2.97;;;2.88;;
56405;SDS011;42305;51.444;-2.584;2022-09-01T08:04:21;3.47;;;3.38;;
56405;SDS011;42305;51.444;-2.584;2022-09-01T08:06:47;2.95;;;2.72;;
56405;SDS011;42305;51.444;-2.584;2022-09-01T08:09:14;2.42;;;2.42;;
56405;SDS011;42305;51.444;-2.584;2022-09-01T08:11:40;2.50;;;2.50;;
56405;SDS011;42305;51.444;-2.584;2022-09-01T08:14:07;4.45;;;4.13;;
56405;SDS011;42305;51.444;-2.584;2022-09-01T08:16:33;2.45;;;2.45;;
56405;SDS011;42305;51.444;-2.584;2022-09-01T08:18:59;7.93;;;3.17;;
56405;SDS011;42305;51.444;-2.584;2022-09-01T08:21:25;2.53;;;2.53;;
56405;SDS011;42305;51.444;-2.584;2022-09-01T08:23:52;2.30;;;2.30;;
56405;SDS011;42305;51.444;-2.584;2022-09-01T08:26:20;2.55;;;2.55;;
56405;SDS011;42305;51.444;-2.584;2022-09-01T08:28:47;3.08;;;2.97;;
56405;SDS011;42305;51.444;-2.584;2022-09-01T08:31:14;2.67;;;2.67;;
56405;SDS011;42305;51.444;-2.584;2022-09-01T08:33:41;2.53;;;2.50;;
56405;SDS011;42305;51.444;-2.584;2022-09-01T08:36:08;2.20;;;2.20;;
56405;SDS011;42305;51.444;-2.584;2022-09-01T08:46:19;2.35;;;2.35;;
56405;SDS011;42305;51.444;-2.584;2022-09-01T08:48:56;2.50;;;2.47;;
56405;SDS011;42305;51.444;-2.584;2022-09-01T08:51:31;2.33;;;2.33;;
56405;SDS011;42305;51.444;-2.584;2022-09-01T08:56:58;2.05;;;2.05;;
56405;SDS011;42305;51.444;-2.584;2022-09-01T08:59:25;1.98;;;1.98;;
56405;SDS011;42305;51.444;-2.584;2022-09-01T09:07:08;2.00;;;2.00;;
56405;SDS011;42305;51.444;-2.584;2022-09-01T09:09:44;2.20;;;2.20;;
56405;SDS011;42305;51.444;-2.584;2022-09-01T09:17:11;2.03;;;2.03;;
56405;SDS011;42305;51.444;-2.584;2022-09-01T09:19:39;1.90;;;1.90;;
56405;SDS011;42305;51.444;-2.584;2022-09-01T09:22:07;2.30;;;2.20;;
56405;SDS011;42305;51.444;-2.584;2022-09-01T09:27:22;1.90;;;1.90;;
56405;SDS011;42305;51.444;-2.584;2022-09-01T09:29:49;1.70;;;1.70;;
56405;SDS011;42305;51.444;-2.584;2022-09-01T09:32:17;1.90;;;1.90;;
56405;SDS011;42305;51.444;-2.584;2022-09-01T09:34:44;1.88;;;1.88;;
56405;SDS011;42305;51.444;-2.584;2022-09-01T09:37:24;2.83;;;2.65;;
56405;SDS011;42305;51.444;-2.584;2022-09-01T09:42:33;2.28;;;2.28;;
56405;SDS011;42305;51.444;-2.584;2022-09-01T09:45:03;3.90;;;3.60;;
56405;SDS011;42305;51.444;-2.584;2022-09-01T09:47:39;2.08;;;2.08;;
56405;SDS011;42305;51.444;-2.584;2022-09-01T09:52:38;2.42;;;2.42;;
56405;SDS011;42305;51.444;-2.584;2022-09-01T09:55:06;3.08;;;2.90;;
56405;SDS011;42305;51.444;-2.584;2022-09-01T09:57:42;1.80;;;1.80;;
56405;SDS011;42305;51.444;-2.584;2022-09-01T10:07:57;15.43;;;2.22;;
56405;SDS011;42305;51.444;-2.584;2022-09-01T10:13:12;1.30;;;1.30;;
56405;SDS011;42305;51.444;-2.584;2022-09-01T10:15:40;1.60;;;1.60;;
56405;SDS011;42305;51.444;-2.584;2022-09-01T10:18:14;1.90;;;1.90;;
56405;SDS011;42305;51.444;-2.584;2022-09-01T10:20:44;1.85;;;1.85;;
56405;SDS011;42305;51.444;-2.584;2022-09-01T10:23:12;1.48;;;1.48;;
56405;SDS011;42305;51.444;-2.584;2022-09-01T10:25:38;1.40;;;1.40;;
56405;SDS011;42305;51.444;-2.584;2022-09-01T10:28:14;2.08;;;1.40;;
56405;SDS011;42305;51.444;-2.584;2022-09-01T10:30:42;2.53;;;1.90;;
56405;SDS011;42305;51.444;-2.584;2022-09-01T10:33:10;1.50;;;1.50;;
56405;SDS011;42305;51.444;-2.584;2022-09-01T10:35:38;1.15;;;1.15;;
56405;SDS011;42305;51.444;-2.584;2022-09-01T10:38:07;1.95;;;1.85;;
56405;SDS011;42305;51.444;-2.584;2022-09-01T10:45:47;1.15;;;1.15;;
56405;SDS011;42305;51.444;-2.584;2022-09-01T10:48:27;1.10;;;1.10;;
56405;SDS011;42305;51.444;-2.584;2022-09-01T10:51:33;1.08;;;1.08;;
56405;SDS011;42305;51.444;-2.584;2022-09-01T10:53:41;1.55;;;1.50;;
56405;SDS011;42305;51.444;-2.584;2022-09-01T10:56:10;1.20;;;1.20;;
56405;SDS011;42305;51.444;-2.584;2022-09-01T11:04:10;1.52;;;1.38;;
56405;SDS011;42305;51.444;-2.584;2022-09-01T11:06:51;0.90;;;0.90;;
56405;SDS011;42305;51.444;-2.584;2022-09-01T11:09:31;2.47;;;1.58;;
56405;SDS011;42305;51.444;-2.584;2022-09-01T11:14:56;1.65;;;1.55;;
56405;SDS011;42305;51.444;-2.584;2022-09-01T11:17:23;1.77;;;1.77;;
56405;SDS011;42305;51.444;-2.584;2022-09-01T11:22:30;1.08;;;1.08;;
56405;SDS011;42305;51.444;-2.584;2022-09-01T11:30:21;1.20;;;1.20;;
56405;SDS011;42305;51.444;-2.584;2022-09-01T11:32:50;1.15;;;1.15;;
56405;SDS011;42305;51.444;-2.584;2022-09-01T11:35:19;1.45;;;1.45;;
56405;SDS011;42305;51.444;-2.584;2022-09-01T11:37:49;1.13;;;1.08;;
56405;SDS011;42305;51.444;-2.584;2022-09-01T11:40:19;4.03;;;1.10;;
56405;SDS011;42305;51.444;-2.584;2022-09-01T11:42:46;1.98;;;1.90;;
56405;SDS011;42305;51.444;-2.584;2022-09-01T11:45:15;1.10;;;1.10;;
56405;SDS011;42305;51.444;-2.584;2022-09-01T11:53:30;0.80;;;0.80;;
56405;SDS011;42305;51.444;-2.584;2022-09-01T11:56:10;1.17;;;1.17;;
56405;SDS011;42305;51.444;-2.584;2022-09-01T11:58:36;0.80;;;0.80;;
56405;SDS011;42305;51.444;-2.584;2022-09-01T12:03:38;1.20;;;1.20;;
56405;SDS011;42305;51.444;-2.584;2022-09-01T12:06:06;1.40;;;1.40;;
56405;SDS011;42305;51.444;-2.584;2022-09-01T12:08:36;1.10;;;1.10;;
56405;SDS011;42305;51.444;-2.584;2022-09-01T12:11:04;1.05;;;1.05;;
56405;SDS011;42305;51.444;-2.584;2022-09-01T12:13:31;1.00;;;1.00;;
56405;SDS011;42305;51.444;-2.584;2022-09-01T12:15:59;0.77;;;0.77;;
56405;SDS011;42305;51.444;-2.584;2022-09-01T12:18:44;0.90;;;0.90;;
56405;SDS011;42305;51.444;-2.584;2022-09-01T12:21:23;1.05;;;1.05;;
56405;SDS011;42305;51.444;-2.584;2022-09-01T12:23:50;1.00;;;1.00;;
56405;SDS011;42305;51.444;-2.584;2022-09-01T12:26:22;1.42;;;1.42;;
56405;SDS011;42305;51.444;-2.584;2022-09-01T12:31:38;0.90;;;0.90;;
56405;SDS011;42305;51.444;-2.584;2022-09-01T12:34:20;0.90;;;0.90;;
56405;SDS011;42305;51.444;-2.584;2022-09-01T12:37:11;1.85;;;1.10;;
56405;SDS011;42305;51.444;-2.584;2022-09-01T12:39:36;1.08;;;1.08;;
56405;SDS011;42305;51.444;-2.584;2022-09-01T12:42:21;1.30;;;1.30;;
56405;SDS011;42305;51.444;-2.584;2022-09-01T12:44:53;1.23;;;1.13;;
56405;SDS011;42305;51.444;-2.584;2022-09-01T12:52:46;1.00;;;1.00;;
56405;SDS011;42305;51.444;-2.584;2022-09-01T12:55:16;1.10;;;1.10;;
56405;SDS011;42305;51.444;-2.584;2022-09-01T12:57:47;1.92;;;1.83;;
56405;SDS011;42305;51.444;-2.584;2022-09-01T13:05:28;1.10;;;1.10;;
56405;SDS011;42305;51.444;-2.584;2022-09-01T13:07:58;11.15;;;1.50;;
56405;SDS011;42305;51.444;-2.584;2022-09-01T13:10:25;0.90;;;0.90;;
56405;SDS011;42305;51.444;-2.584;2022-09-01T13:12:52;1.25;;;1.25;;
56405;SDS011;42305;51.444;-2.584;2022-09-01T13:15:19;0.90;;;0.90;;
56405;SDS011;42305;51.444;-2.584;2022-09-01T13:17:45;1.40;;;1.40;;
56405;SDS011;42305;51.444;-2.584;2022-09-01T13:20:11;2.28;;;1.75;;
56405;SDS011;42305;51.444;-2.584;2022-09-01T13:22:38;1.10;;;1.10;;
56405;SDS011;42305;51.444;-2.584;2022-09-01T13:25:06;1.02;;;1.02;;
56405;SDS011;42305;51.444;-2.584;2022-09-01T13:27:35;0.80;;;0.80;;
56405;SDS011;42305;51.444;-2.584;2022-09-01T13:30:02;1.10;;;1.10;;
56405;SDS011;42305;51.444;-2.584;2022-09-01T13:32:28;1.10;;;1.10;;
56405;SDS011;42305;51.444;-2.584;2022-09-01T13:34:54;1.83;;;1.77;;
56405;SDS011;42305;51.444;-2.584;2022-09-01T13:37:21;1.10;;;1.10;;
56405;SDS011;42305;51.444;-2.584;2022-09-01T13:39:47;1.65;;;1.55;;
56405;SDS011;42305;51.444;-2.584;2022-09-01T13:42:13;1.23;;;1.23;;
56405;SDS011;42305;51.444;-2.584;2022-09-01T13:44:40;1.00;;;1.00;;
56405;SDS011;42305;51.444;-2.584;2022-09-01T13:47:07;1.00;;;1.00;;
56405;SDS011;42305;51.444;-2.584;2022-09-01T13:49:33;0.90;;;0.90;;
56405;SDS011;42305;51.444;-2.584;2022-09-01T13:51:59;1.30;;;1.30;;
56405;SDS011;42305;51.444;-2.584;2022-09-01T13:54:25;1.10;;;1.10;;
56405;SDS011;42305;51.444;-2.584;2022-09-01T13:56:51;1.02;;;1.02;;
56405;SDS011;42305;51.444;-2.584;2022-09-01T13:59:17;0.90;;;0.90;;
56405;SDS011;42305;51.444;-2.584;2022-09-01T14:01:43;0.93;;;0.93;;
56405;SDS011;42305;51.444;-2.584;2022-09-01T14:04:10;1.58;;;1.55;;
56405;SDS011;42305;51.444;-2.584;2022-09-01T14:06:40;6.20;;;1.70;;
56405;SDS011;42305;51.444;-2.584;2022-09-01T14:09:11;1.05;;;1.05;;
56405;SDS011;42305;51.444;-2.584;2022-09-01T14:11:37;0.82;;;0.82;;
56405;SDS011;42305;51.444;-2.584;2022-09-01T14:14:03;1.08;;;1.08;;
56405;SDS011;42305;51.444;-2.584;2022-09-01T14:16:30;1.10;;;1.10;;
56405;SDS011;42305;51.444;-2.584;2022-09-01T14:18:57;0.90;;;0.90;;
56405;SDS011;42305;51.444;-2.584;2022-09-01T14:21:24;1.20;;;1.20;;
56405;SDS011;42305;51.444;-2.584;2022-09-01T14:23:50;1.00;;;1.00;;
56405;SDS011;42305;51.444;-2.584;2022-09-01T14:26:16;1.00;;;1.00;;
56405;SDS011;42305;51.444;-2.584;2022-09-01T14:28:43;1.48;;;1.48;;
56405;SDS011;42305;51.444;-2.584;2022-09-01T14:31:11;1.75;;;1.65;;
56405;SDS011;42305;51.444;-2.584;2022-09-01T14:33:37;0.95;;;0.95;;
56405;SDS011;42305;51.444;-2.584;2022-09-01T14:36:04;1.30;;;1.30;;
56405;SDS011;42305;51.444;-2.584;2022-09-01T14:38:30;0.90;;;0.90;;
56405;SDS011;42305;51.444;-2.584;2022-09-01T14:40:57;10.85;;;1.50;;
56405;SDS011;42305;51.444;-2.584;2022-09-01T14:43:23;1.20;;;1.20;;
56405;SDS011;42305;51.444;-2.584;2022-09-01T14:46:00;1.02;;;1.02;;
56405;SDS011;42305;51.444;-2.584;2022-09-01T14:48:26;1.42;;;1.42;;
56405;SDS011;42305;51.444;-2.584;2022-09-01T14:50:52;0.90;;;0.90;;
56405;SDS011;42305;51.444;-2.584;2022-09-01T14:53:18;1.50;;;1.50;;
56405;SDS011;42305;51.444;-2.584;2022-09-01T14:55:45;2.60;;;1.33;;
56405;SDS011;42305;51.444;-2.584;2022-09-01T14:58:11;1.08;;;1.08;;
56405;SDS011;42305;51.444;-2.584;2022-09-01T15:00:37;0.93;;;0.93;;
56405;SDS011;42305;51.444;-2.584;2022-09-01T15:03:05;2.63;;;1.20;;
56405;SDS011;42305;51.444;-2.584;2022-09-01T15:05:31;0.80;;;0.80;;
56405;SDS011;42305;51.444;-2.584;2022-09-01T15:07:57;0.90;;;0.90;;
56405;SDS011;42305;51.444;-2.584;2022-09-01T15:10:24;0.90;;;0.90;;
56405;SDS011;42305;51.444;-2.584;2022-09-01T15:12:55;4.03;;;2.25;;
56405;SDS011;42305;51.444;-2.584;2022-09-01T15:15:21;0.80;;;0.80;;
56405;SDS011;42305;51.444;-2.584;2022-09-01T15:17:48;0.70;;;0.70;;
56405;SDS011;42305;51.444;-2.584;2022-09-01T15:20:14;1.10;;;1.05;;
56405;SDS011;42305;51.444;-2.584;2022-09-01T15:22:59;0.93;;;0.93;;
56405;SDS011;42305;51.444;-2.584;2022-09-01T15:25:26;0.73;;;0.73;;
56405;SDS011;42305;51.444;-2.584;2022-09-01T15:27:52;0.85;;;0.85;;
56405;SDS011;42305;51.444;-2.584;2022-09-01T15:30:18;1.30;;;1.00;;
56405;SDS011;42305;51.444;-2.584;2022-09-01T15:32:47;0.40;;;0.40;;
56405;SDS011;42305;51.444;-2.584;2022-09-01T15:35:13;0.47;;;0.47;;
56405;SDS011;42305;51.444;-2.584;2022-09-01T15:37:40;0.40;;;0.40;;
56405;SDS011;42305;51.444;-2.584;2022-09-01T15:40:07;0.90;;;0.90;;
56405;SDS011;42305;51.444;-2.584;2022-09-01T15:42:34;1.02;;;0.95;;
56405;SDS011;42305;51.444;-2.584;2022-09-01T15:45:05;0.80;;;0.80;;
56405;SDS011;42305;51.444;-2.584;2022-09-01T15:49:58;0.70;;;0.70;;
56405;SDS011;42305;51.444;-2.584;2022-09-01T15:52:24;0.73;;;0.73;;
56405;SDS011;42305;51.444;-2.584;2022-09-01T15:54:51;1.10;;;1.10;;
56405;SDS011;42305;51.444;-2.584;2022-09-01T15:57:17;0.80;;;0.80;;
56405;SDS011;42305;51.444;-2.584;2022-09-01T15:59:44;1.83;;;1.73;;
56405;SDS011;42305;51.444;-2.584;2022-09-01T16:02:10;1.35;;;1.35;;
56405;SDS011;42305;51.444;-2.584;2022-09-01T16:04:39;1.73;;;1.73;;
56405;SDS011;42305;51.444;-2.584;2022-09-01T16:09:34;4.60;;;3.05;;
56405;SDS011;42305;51.444;-2.584;2022-09-01T16:12:01;1.30;;;1.20;;